Cuddapah, Cuddapah Airport (VOCP)

NameCuddapah Airport
CityCuddapah
CountryIndia
ICAOVOCP
IATACDP
Altitude131 m
CoordinatesGoogle Map
Live Air TrafficLiveATC.net
METARVOCP 260700Z 10011KT 5000 HZ FEW020 32/21 Q1012
2020-02-26 07:00:00 Wind: East (100°) 5.66 m/s - Visibility: 5000 m - Weather: Haze - Temperature: 32 °C - Dew point: 21 °C - Humidity: 52.2% - Pressure: 1012 hPa

Sorry, no flights used the airport in this database.